This is the latest recevied weather packets stored in our database for station/object KD9YTS-13. If no packets are shown the sender has not sent any weather packets the latest 10 day(s).
| Time | Temp. | Humidity | Pressure | Rain* | Wind** | Luminosity | Snow |
|---|---|---|---|---|---|---|---|
| 1777713382 | -17.78° C | 100% | - | 0 mm | - | - | - |
| 1777712182 | -1.67° C | 8% | - | 0 mm | - | - | - |
| 1777710982 | -17.78° C | 100% | - | 0 mm | - | - | - |
| 1777709782 | -17.78° C | 100% | - | 0 mm | - | - | - |
| 1777708583 | -17.78° C | 100% | - | 0 mm | - | - | - |
| 1777707382 | -2.22° C | 8% | - | 0 mm | - | - | - |
| 1777706182 | -1.67° C | 8% | - | 0 mm | - | - | - |
| 1777704982 | -17.78° C | 100% | - | 0 mm | - | - | - |
| 1777703782 | -17.78° C | 100% | - | 0 mm | - | - | - |
| 1777701382 | -1.67° C | 8% | - | 0 mm | - | - | - |
| 1777700182 | -1.67° C | 8% | - | 0 mm | - | - | - |
| 1777698982 | -17.78° C | 100% | - | 0 mm | - | - | - |
| 1777697783 | -1.11° C | 7% | - | 0 mm | - | - | - |
| 1777696583 | -17.78° C | 100% | - | 0 mm | - | - | - |
| 1777694182 | 0° C | 7% | - | 0 mm | - | - | - |
| 1777692983 | -17.78° C | 100% | - | 0 mm | - | - | - |
| 1777691782 | -17.78° C | 100% | - | 0 mm | - | - | - |
| 1777690582 | 1.11° C | 6% | - | 0 mm | - | - | - |
| 1777689382 | 1.67° C | 6% | - | 0 mm | - | - | - |
| 1777688182 | -17.78° C | 100% | - | 0 mm | - | - | - |
| 1777686982 | -17.78° C | 100% | - | 0 mm | - | - | - |
| 1777685784 | 2.78° C | 5% | - | 0 mm | - | - | - |
| 1777684582 | -17.78° C | 100% | - | 0 mm | - | - | - |
| 1777683382 | 5° C | 4% | - | 0 mm | - | - | - |
| 1777682182 | -17.78° C | 100% | - | 0 mm | - | - | - |
* Rain latest hour (hover to see other rain measurements)
** Current wind speed in m/s (hover to see current wind gust speed)